Time;durP1;ratioP1;P1;durP2;ratioP2;P2;SDS_P1;SDS_P2;PMS_P1;PMS_P2;Temp;Humidity;BMP_temperature;BMP_pressure;BME280_temperature;BME280_humidity;BME280_pressure;Samples;Min_cycle;Max_cycle;Signal;HPM_P1;HPM_P2
2024/03/09 00:01:37;;;;;;;19.27;13.97;;;6.50;99.90;;;;;;5090070;28;20237;-71
2024/03/09 00:04:04;;;;;;;18.63;14.43;;;6.50;99.90;;;;;;5090067;28;20382;-71
2024/03/09 00:06:35;;;;;;;20.17;14.73;;;6.50;99.90;;;;;;5090018;28;20209;-71
2024/03/09 00:09:03;;;;;;;20.33;15.20;;;6.50;99.90;;;;;;5089786;28;20202;-72
2024/03/09 00:11:31;;;;;;;20.50;15.77;;;6.50;99.90;;;;;;5089459;28;20206;-72
2024/03/09 00:13:58;;;;;;;20.40;15.23;;;6.50;99.90;;;;;;5089396;28;20657;-72
2024/03/09 00:16:25;;;;;;;21.63;15.47;;;6.50;99.90;;;;;;5089771;28;20286;-72
2024/03/09 00:18:52;;;;;;;19.00;14.67;;;6.50;99.90;;;;;;5090132;28;20633;-72
2024/03/09 00:21:19;;;;;;;21.43;15.47;;;6.40;99.90;;;;;;5089635;28;20199;-73
2024/03/09 00:23:50;;;;;;;22.23;15.57;;;6.40;99.90;;;;;;5089545;28;20293;-73
2024/03/09 00:26:17;;;;;;;23.33;15.73;;;6.40;99.90;;;;;;5089540;28;20202;-72
2024/03/09 00:28:45;;;;;;;20.80;15.40;;;6.40;99.90;;;;;;5089304;28;20223;-71
2024/03/09 00:31:12;;;;;;;24.77;17.00;;;6.30;99.90;;;;;;5089504;28;20206;-71
2024/03/09 00:33:41;;;;;;;22.93;16.93;;;6.30;99.90;;;;;;5089071;28;20206;-72
2024/03/09 00:36:10;;;;;;;25.10;17.13;;;6.30;99.90;;;;;;5089452;28;20203;-72
2024/03/09 00:38:40;;;;;;;22.83;16.90;;;6.30;99.90;;;;;;5089164;28;20214;-72
2024/03/09 00:41:10;;;;;;;22.23;16.47;;;6.20;99.90;;;;;;5089329;28;20201;-71
2024/03/09 00:43:43;;;;;;;26.20;17.83;;;6.20;99.90;;;;;;5088281;28;20237;-72
2024/03/09 00:46:11;;;;;;;24.93;16.70;;;6.20;99.90;;;;;;5088998;28;20708;-71
2024/03/09 00:48:38;;;;;;;24.17;17.43;;;6.20;99.90;;;;;;5088752;28;20202;-72
2024/03/09 00:51:05;;;;;;;25.63;17.03;;;6.20;99.90;;;;;;5088977;28;20237;-72
2024/03/09 00:53:32;;;;;;;24.50;17.57;;;6.20;99.90;;;;;;5088454;28;20504;-71
2024/03/09 00:55:59;;;;;;;25.23;17.53;;;6.10;99.90;;;;;;5088804;28;20301;-72
2024/03/09 00:58:28;;;;;;;24.80;17.47;;;6.10;99.90;;;;;;5088800;28;20297;-72
2024/03/09 01:00:55;;;;;;;23.27;17.20;;;6.10;99.90;;;;;;5088911;28;20249;-72
2024/03/09 01:03:22;;;;;;;22.63;16.80;;;6.00;99.90;;;;;;5088784;28;20322;-72
2024/03/09 01:05:49;;;;;;;23.00;16.97;;;6.00;99.90;;;;;;5088590;28;20206;-72
2024/03/09 01:08:16;;;;;;;21.53;17.60;;;6.00;99.90;;;;;;5088558;28;20202;-72
2024/03/09 01:10:43;;;;;;;24.80;17.93;;;6.00;99.90;;;;;;5088297;28;20260;-72
2024/03/09 01:13:10;;;;;;;26.30;17.97;;;6.00;99.90;;;;;;5088594;28;20271;-71
2024/03/09 01:15:39;;;;;;;23.90;17.73;;;6.00;99.90;;;;;;5088627;28;20215;-72
2024/03/09 01:18:07;;;;;;;25.13;17.70;;;6.00;99.90;;;;;;5088717;28;20234;-72
2024/03/09 01:20:34;;;;;;;25.70;18.13;;;6.00;99.90;;;;;;5068047;28;20654;-72
2024/03/09 01:23:01;;;;;;;25.83;17.07;;;6.00;99.90;;;;;;5068383;28;20242;-73
2024/03/09 01:25:28;;;;;;;25.20;17.50;;;6.00;99.90;;;;;;5067890;28;20294;-73
2024/03/09 01:27:55;;;;;;;24.40;17.27;;;6.00;99.90;;;;;;5086906;28;20210;-73
2024/03/09 01:30:21;;;;;;;25.47;18.07;;;5.90;99.90;;;;;;5088528;28;20291;-72
2024/03/09 01:32:50;;;;;;;26.90;18.37;;;5.90;99.90;;;;;;5088035;28;20277;-73
2024/03/09 01:35:17;;;;;;;25.37;18.67;;;5.90;99.90;;;;;;5088395;28;20297;-71
2024/03/09 01:37:43;;;;;;;24.70;18.03;;;5.80;99.90;;;;;;5088231;28;20250;-71
2024/03/09 01:40:11;;;;;;;24.57;17.87;;;5.90;99.90;;;;;;5088163;28;20213;-72
2024/03/09 01:42:38;;;;;;;25.67;17.83;;;5.80;99.90;;;;;;5087879;28;20232;-72
2024/03/09 01:45:07;;;;;;;24.37;18.10;;;5.90;99.90;;;;;;5087674;28;20237;-71
2024/03/09 01:47:35;;;;;;;26.40;18.57;;;5.80;99.90;;;;;;5087954;28;20206;-72
2024/03/09 01:50:05;;;;;;;26.33;17.90;;;5.80;99.90;;;;;;5088222;28;20215;-71
2024/03/09 01:52:32;;;;;;;26.03;18.97;;;5.70;99.90;;;;;;5088127;28;20305;-71
2024/03/09 01:55:03;;;;;;;25.17;18.90;;;5.80;99.90;;;;;;5087279;28;20692;-72
2024/03/09 01:57:30;;;;;;;25.50;18.30;;;5.70;99.90;;;;;;5087736;28;20207;-72
2024/03/09 01:59:57;;;;;;;23.33;17.97;;;5.70;99.90;;;;;;5088119;28;20234;-73
2024/03/09 02:02:24;;;;;;;25.40;18.27;;;5.60;99.90;;;;;;5087852;28;20596;-72
2024/03/09 02:04:52;;;;;;;26.77;18.30;;;5.60;99.90;;;;;;5087517;28;20592;-72
2024/03/09 02:07:20;;;;;;;24.83;18.13;;;5.60;99.90;;;;;;5087723;28;20248;-72
2024/03/09 02:09:48;;;;;;;25.60;18.03;;;5.60;99.90;;;;;;5087199;28;20297;-71
2024/03/09 02:12:16;;;;;;;26.30;19.23;;;5.60;99.90;;;;;;5087273;28;20738;-72
2024/03/09 02:14:44;;;;;;;24.17;18.23;;;5.50;99.90;;;;;;5087718;28;20212;-71
2024/03/09 02:17:12;;;;;;;26.70;19.40;;;5.50;99.90;;;;;;5087715;28;20564;-72
2024/03/09 02:19:39;;;;;;;26.33;19.03;;;5.50;99.90;;;;;;5087504;28;20195;-72
2024/03/09 02:22:07;;;;;;;26.57;19.37;;;5.60;99.90;;;;;;5087133;28;20207;-71
2024/03/09 02:24:40;;;;;;;30.13;19.00;;;5.50;99.90;;;;;;5087051;28;20289;-72
2024/03/09 02:27:09;;;;;;;26.97;19.20;;;5.50;99.90;;;;;;5086754;28;20209;-72
2024/03/09 02:29:36;;;;;;;26.20;19.07;;;5.50;99.90;;;;;;5087099;28;20669;-72
2024/03/09 02:32:03;;;;;;;25.60;19.17;;;5.40;99.90;;;;;;5087152;28;20403;-73
2024/03/09 02:34:30;;;;;;;28.17;18.77;;;5.40;99.90;;;;;;5086895;28;20207;-72
2024/03/09 02:36:57;;;;;;;25.73;18.60;;;5.30;99.90;;;;;;5087455;28;20229;-71
2024/03/09 02:39:27;;;;;;;26.90;19.30;;;5.30;99.90;;;;;;5086962;28;20237;-72
2024/03/09 02:41:56;;;;;;;24.50;18.90;;;5.30;99.90;;;;;;5085473;28;20210;-74
2024/03/09 02:44:24;;;;;;;29.10;18.37;;;5.30;99.90;;;;;;5086755;28;20257;-73
2024/03/09 02:46:51;;;;;;;25.87;18.17;;;5.30;99.90;;;;;;5087055;28;20965;-74
2024/03/09 02:49:19;;;;;;;29.50;20.73;;;5.20;99.90;;;;;;5080138;28;20698;-74
2024/03/09 02:51:47;;;;;;;27.17;18.77;;;5.20;99.90;;;;;;5066935;28;20653;-74
2024/03/09 02:54:14;;;;;;;24.90;19.07;;;5.10;99.90;;;;;;5067314;28;20294;-74
2024/03/09 02:56:41;;;;;;;30.13;19.33;;;5.10;99.90;;;;;;5074781;28;20203;-71
2024/03/09 02:59:08;;;;;;;26.03;19.63;;;5.10;99.90;;;;;;5086393;28;20297;-71
2024/03/09 03:01:37;;;;;;;28.83;20.30;;;5.10;99.90;;;;;;5084206;28;20231;-71
2024/03/09 03:04:03;;;;;;;26.23;20.20;;;5.00;99.90;;;;;;5086178;28;20239;-70
2024/03/09 03:06:32;;;;;;;28.50;19.90;;;5.00;99.90;;;;;;5086092;28;20206;-70
2024/03/09 03:09:10;;;;;;;30.20;20.03;;;5.10;99.90;;;;;;5090726;28;20233;-71
2024/03/09 03:11:37;;;;;;;31.40;20.20;;;5.00;99.90;;;;;;5085378;28;20275;-72
2024/03/09 03:14:04;;;;;;;26.47;19.20;;;5.00;99.90;;;;;;5090234;28;20238;-71
2024/03/09 03:16:35;;;;;;;29.73;19.53;;;5.00;99.90;;;;;;5090935;28;20209;-71
2024/03/09 03:19:06;;;;;;;30.70;20.70;;;4.90;99.90;;;;;;5091115;28;20195;-71
2024/03/09 03:21:34;;;;;;;30.13;19.70;;;4.90;99.90;;;;;;5090854;28;20195;-71
2024/03/09 03:24:02;;;;;;;30.67;20.33;;;4.80;99.90;;;;;;5090447;28;20238;-71
2024/03/09 03:26:30;;;;;;;31.30;20.50;;;4.70;99.90;;;;;;5090467;28;20211;-72
2024/03/09 03:28:57;;;;;;;30.47;21.20;;;4.70;99.90;;;;;;5090551;28;20256;-72
2024/03/09 03:31:25;;;;;;;28.03;20.33;;;4.70;99.90;;;;;;5090277;28;20293;-71
2024/03/09 03:33:52;;;;;;;30.93;20.43;;;4.70;99.90;;;;;;5090408;28;20293;-72
2024/03/09 03:36:23;;;;;;;28.73;19.30;;;4.70;99.90;;;;;;5090119;28;20298;-71
2024/03/09 03:38:51;;;;;;;27.97;20.00;;;4.60;99.90;;;;;;5090463;28;20684;-71
2024/03/09 03:41:22;;;;;;;32.47;19.97;;;4.60;99.90;;;;;;5090277;28;20297;-72
2024/03/09 03:43:48;;;;;;;26.87;19.63;;;4.60;99.90;;;;;;5090032;28;20215;-71
2024/03/09 03:46:16;;;;;;;27.23;20.20;;;4.60;99.90;;;;;;5089813;28;20297;-72
2024/03/09 03:48:45;;;;;;;27.33;19.60;;;4.70;99.90;;;;;;5090392;28;20207;-72
2024/03/09 03:51:13;;;;;;;28.77;19.30;;;4.70;99.90;;;;;;5090046;28;20203;-73
2024/03/09 03:53:41;;;;;;;29.77;20.67;;;4.70;99.90;;;;;;5090408;28;20480;-72
2024/03/09 03:56:08;;;;;;;28.40;19.40;;;4.60;99.90;;;;;;5089119;28;20264;-72
2024/03/09 03:58:35;;;;;;;30.87;20.90;;;4.50;99.90;;;;;;5087137;28;20242;-71
2024/03/09 04:01:02;;;;;;;28.97;20.80;;;4.50;99.90;;;;;;5089415;28;20700;-71
2024/03/09 04:03:31;;;;;;;32.20;21.47;;;4.60;99.90;;;;;;5089669;28;20231;-72
2024/03/09 04:05:59;;;;;;;31.20;20.70;;;4.60;99.90;;;;;;5089485;28;20210;-72
2024/03/09 04:08:26;;;;;;;30.07;20.80;;;4.50;99.90;;;;;;5089779;28;20195;-72
2024/03/09 04:10:54;;;;;;;34.07;20.80;;;4.50;99.90;;;;;;5089261;28;20205;-72
2024/03/09 04:13:23;;;;;;;32.53;21.30;;;4.50;99.90;;;;;;5089151;28;20666;-72
2024/03/09 04:15:51;;;;;;;33.00;22.23;;;4.50;99.90;;;;;;5089823;28;20213;-72
2024/03/09 04:18:18;;;;;;;31.57;21.40;;;4.50;99.90;;;;;;5089441;28;20203;-72
2024/03/09 04:20:45;;;;;;;31.23;21.37;;;4.50;99.90;;;;;;5086790;28;20260;-72
2024/03/09 04:23:15;;;;;;;29.40;20.80;;;4.50;99.90;;;;;;5089571;28;20314;-72
2024/03/09 04:25:43;;;;;;;27.13;19.37;;;4.50;99.90;;;;;;5089451;28;20191;-72
2024/03/09 04:28:16;;;;;;;31.77;22.37;;;4.50;99.90;;;;;;5089666;28;20203;-72
2024/03/09 04:30:43;;;;;;;31.27;22.20;;;4.40;99.90;;;;;;5089256;28;20191;-71
2024/03/09 04:33:11;;;;;;;33.57;20.77;;;4.40;99.90;;;;;;5089452;28;20207;-71
2024/03/09 04:35:38;;;;;;;30.93;20.43;;;4.40;99.90;;;;;;5089238;28;20215;-72
2024/03/09 04:38:05;;;;;;;31.23;21.07;;;4.30;99.90;;;;;;5089334;28;20305;-71
2024/03/09 04:40:33;;;;;;;33.67;22.13;;;4.40;99.90;;;;;;5089088;28;20289;-71
2024/03/09 04:43:03;;;;;;;36.03;22.03;;;4.40;99.90;;;;;;5088850;28;20207;-71
2024/03/09 04:45:31;;;;;;;31.03;21.03;;;4.40;99.90;;;;;;5089001;28;20674;-72
2024/03/09 04:47:59;;;;;;;30.93;21.73;;;4.40;99.90;;;;;;5088887;28;20304;-71
2024/03/09 04:50:26;;;;;;;29.43;20.93;;;4.30;99.90;;;;;;5089271;28;20206;-72
2024/03/09 04:52:53;;;;;;;31.27;21.70;;;4.30;99.90;;;;;;5088334;28;20634;-72
2024/03/09 04:55:25;;;;;;;33.17;21.97;;;4.20;99.90;;;;;;5080546;28;20688;-72
2024/03/09 04:57:53;;;;;;;36.43;21.73;;;4.10;99.90;;;;;;5070601;28;20206;-72
2024/03/09 05:00:20;;;;;;;33.23;21.37;;;4.10;99.90;;;;;;5068819;28;20208;-72
2024/03/09 05:02:49;;;;;;;30.60;22.43;;;4.10;99.90;;;;;;5079566;28;20743;-72
2024/03/09 05:05:17;;;;;;;33.17;22.70;;;4.10;99.90;;;;;;5088493;28;20206;-72
2024/03/09 05:07:46;;;;;;;31.73;21.60;;;4.10;99.90;;;;;;5088330;28;20214;-72
2024/03/09 05:10:17;;;;;;;29.93;21.50;;;4.00;99.90;;;;;;5088626;28;20218;-72
2024/03/09 05:12:44;;;;;;;31.73;21.47;;;4.00;99.90;;;;;;5088352;28;20705;-71
2024/03/09 05:15:12;;;;;;;32.07;21.67;;;4.00;99.90;;;;;;5088639;28;20199;-71
2024/03/09 05:17:39;;;;;;;33.13;22.23;;;4.00;99.90;;;;;;5088460;28;20210;-72
2024/03/09 05:20:20;;;;;;;35.67;22.63;;;4.10;99.90;;;;;;5078431;28;20195;-72
2024/03/09 05:22:47;;;;;;;30.80;21.10;;;4.10;99.90;;;;;;5088649;28;20681;-72
2024/03/09 05:25:15;;;;;;;36.50;22.27;;;4.20;99.90;;;;;;5088401;28;20245;-73
2024/03/09 05:27:42;;;;;;;34.13;22.47;;;4.10;99.90;;;;;;5088213;28;20677;-72
2024/03/09 05:30:14;;;;;;;35.10;22.03;;;4.10;99.90;;;;;;5087760;28;20681;-72
2024/03/09 05:32:42;;;;;;;31.30;21.57;;;4.00;99.90;;;;;;5088678;28;20199;-72
2024/03/09 05:35:13;;;;;;;33.30;21.63;;;4.00;99.90;;;;;;5088515;28;20673;-72
2024/03/09 05:37:41;;;;;;;31.70;21.37;;;4.00;99.90;;;;;;5088724;28;20310;-72
2024/03/09 05:40:09;;;;;;;31.33;20.93;;;4.00;99.90;;;;;;5087887;28;20198;-72
2024/03/09 05:42:37;;;;;;;36.17;21.27;;;3.90;99.90;;;;;;5071630;28;20282;-72
2024/03/09 05:45:09;;;;;;;32.80;22.00;;;3.90;99.90;;;;;;5067818;28;20712;-72
2024/03/09 05:47:36;;;;;;;31.97;21.73;;;4.00;99.90;;;;;;5067920;28;20191;-72
2024/03/09 05:50:03;;;;;;;33.83;22.50;;;4.00;99.90;;;;;;5068220;28;20298;-72
2024/03/09 05:52:31;;;;;;;34.23;22.87;;;4.00;99.90;;;;;;5086417;28;20257;-72
2024/03/09 05:54:58;;;;;;;33.30;22.97;;;4.00;99.90;;;;;;5087664;28;20621;-72
2024/03/09 05:57:25;;;;;;;32.70;23.27;;;4.00;99.90;;;;;;5088052;28;20290;-73
2024/03/09 05:59:53;;;;;;;30.70;21.40;;;4.00;99.90;;;;;;5088281;28;20234;-72
2024/03/09 06:02:21;;;;;;;35.53;22.70;;;4.00;99.90;;;;;;5087676;28;20207;-72
2024/03/09 06:04:48;;;;;;;33.53;22.03;;;3.90;99.90;;;;;;5087744;28;20266;-72
2024/03/09 06:07:15;;;;;;;36.47;23.57;;;3.80;99.90;;;;;;5087934;28;20297;-72
2024/03/09 06:09:45;;;;;;;36.70;22.67;;;3.80;99.90;;;;;;5087413;28;20245;-72
2024/03/09 06:12:14;;;;;;;33.80;23.20;;;3.90;99.90;;;;;;5088253;28;20273;-71
2024/03/09 06:14:44;;;;;;;35.97;22.97;;;4.00;99.90;;;;;;5067926;28;20199;-71
2024/03/09 06:17:12;;;;;;;35.83;23.60;;;4.10;99.90;;;;;;5067900;28;20248;-71
2024/03/09 06:19:39;;;;;;;34.00;21.67;;;4.10;99.90;;;;;;5067542;28;20203;-72
2024/03/09 06:22:06;;;;;;;34.17;22.90;;;4.00;99.90;;;;;;5067730;28;20250;-72
2024/03/09 06:24:33;;;;;;;33.53;22.60;;;4.10;99.90;;;;;;5067226;28;20233;-73
2024/03/09 06:27:03;;;;;;;34.23;23.70;;;4.20;99.90;;;;;;5064756;28;20211;-72
2024/03/09 06:29:29;;;;;;;35.90;23.10;;;4.30;99.90;;;;;;5067087;28;20206;-74
2024/03/09 06:31:56;;;;;;;32.30;22.53;;;4.40;99.90;;;;;;5067253;28;20752;-74
2024/03/09 06:34:24;;;;;;;33.10;22.17;;;4.40;99.90;;;;;;5067437;28;20546;-74
2024/03/09 06:36:55;;;;;;;34.13;22.73;;;4.40;99.90;;;;;;5067401;28;20196;-73
2024/03/09 06:39:22;;;;;;;36.40;22.67;;;4.40;99.90;;;;;;5066630;28;20195;-73
2024/03/09 06:41:52;;;;;;;33.83;23.03;;;4.40;99.90;;;;;;5046030;28;20248;-73
2024/03/09 06:44:22;;;;;;;34.07;22.63;;;4.40;99.90;;;;;;5047151;28;20263;-73
2024/03/09 06:46:51;;;;;;;32.77;22.87;;;4.40;99.90;;;;;;5049876;28;20297;-73
2024/03/09 06:49:18;;;;;;;35.70;22.27;;;4.40;99.90;;;;;;5066927;28;20207;-73
2024/03/09 06:51:45;;;;;;;35.03;22.83;;;4.50;99.90;;;;;;5066732;28;20211;-73
2024/03/09 06:54:12;;;;;;;34.40;22.17;;;4.50;99.90;;;;;;5067042;28;20210;-73
2024/03/09 06:56:40;;;;;;;30.90;21.67;;;4.50;99.90;;;;;;5066523;28;20299;-73
2024/03/09 06:59:07;;;;;;;39.60;23.73;;;4.60;99.90;;;;;;5066811;28;20230;-73
2024/03/09 07:01:36;;;;;;;29.57;21.77;;;4.60;99.90;;;;;;5067013;28;20242;-73
2024/03/09 07:04:04;;;;;;;31.57;22.20;;;4.60;99.90;;;;;;5066879;28;20263;-73
2024/03/09 07:06:31;;;;;;;32.17;22.07;;;4.60;99.90;;;;;;5066749;28;20699;-73
2024/03/09 07:08:58;;;;;;;34.73;22.73;;;4.70;99.90;;;;;;5066260;28;20294;-73
2024/03/09 07:11:26;;;;;;;30.37;21.70;;;4.70;99.90;;;;;;5066278;28;20215;-73
2024/03/09 07:13:55;;;;;;;33.47;22.87;;;4.70;99.90;;;;;;5080104;28;20234;-73
2024/03/09 07:16:23;;;;;;;31.80;21.33;;;4.80;99.90;;;;;;5087262;28;20202;-73
2024/03/09 07:18:51;;;;;;;33.07;21.80;;;4.90;99.90;;;;;;5087000;28;20206;-73
2024/03/09 07:21:18;;;;;;;35.53;22.37;;;5.00;99.90;;;;;;5084609;28;20293;-73
2024/03/09 07:23:45;;;;;;;32.30;21.77;;;5.10;99.90;;;;;;5084983;28;20202;-73
2024/03/09 07:26:13;;;;;;;30.37;21.03;;;5.10;99.90;;;;;;5082418;28;20222;-72
2024/03/09 07:28:40;;;;;;;30.17;20.93;;;5.20;99.90;;;;;;5066583;28;20306;-73
2024/03/09 07:31:07;;;;;;;31.13;22.17;;;5.30;99.90;;;;;;5085239;28;20309;-72
2024/03/09 07:33:35;;;;;;;35.03;22.77;;;5.40;99.90;;;;;;5086197;28;20688;-72
2024/03/09 07:36:03;;;;;;;31.67;22.30;;;5.40;99.90;;;;;;5086565;28;20211;-71
2024/03/09 07:38:30;;;;;;;32.73;21.10;;;5.50;99.90;;;;;;5086566;28;20297;-72
2024/03/09 07:40:57;;;;;;;31.03;21.37;;;5.50;99.90;;;;;;5086068;28;20301;-71
2024/03/09 07:43:24;;;;;;;33.90;22.30;;;5.60;99.90;;;;;;5086261;28;20206;-72
2024/03/09 07:45:51;;;;;;;33.67;21.73;;;5.60;99.90;;;;;;5086413;28;20227;-72
2024/03/09 07:48:17;;;;;;;33.67;23.13;;;5.70;99.90;;;;;;5086826;28;20282;-72
2024/03/09 07:50:48;;;;;;;29.87;20.97;;;5.70;99.90;;;;;;5086320;28;20299;-72
2024/03/09 07:53:16;;;;;;;29.33;21.37;;;5.80;99.90;;;;;;5087880;28;20640;-72
2024/03/09 07:55:43;;;;;;;32.03;21.77;;;5.80;99.90;;;;;;5090035;28;20230;-72
2024/03/09 07:58:10;;;;;;;28.33;20.90;;;5.80;99.90;;;;;;5087695;28;20317;-73
2024/03/09 08:00:37;;;;;;;30.10;21.43;;;5.90;99.90;;;;;;5089684;28;20238;-73
2024/03/09 08:03:05;;;;;;;33.37;22.53;;;6.00;99.90;;;;;;5089749;28;20314;-73
2024/03/09 08:05:32;;;;;;;32.43;21.57;;;6.00;99.90;;;;;;5089741;28;20235;-73
2024/03/09 08:08:02;;;;;;;32.57;21.83;;;6.00;99.90;;;;;;5089288;28;20297;-73
2024/03/09 08:10:31;;;;;;;29.13;20.63;;;6.10;99.90;;;;;;5089118;28;20194;-72
2024/03/09 08:12:58;;;;;;;31.67;22.07;;;6.10;99.90;;;;;;5088878;28;20800;-72
2024/03/09 08:15:28;;;;;;;32.00;22.30;;;6.00;99.90;;;;;;5089691;28;20199;-71
2024/03/09 08:17:56;;;;;;;29.63;21.03;;;6.00;99.90;;;;;;5088114;28;20207;-71
2024/03/09 08:20:24;;;;;;;31.10;21.93;;;5.90;99.90;;;;;;5089739;28;20218;-71
2024/03/09 08:22:51;;;;;;;33.37;20.97;;;6.00;99.90;;;;;;5089995;28;20207;-70
2024/03/09 08:25:18;;;;;;;29.67;21.93;;;6.10;99.90;;;;;;5089325;28;20314;-71
2024/03/09 08:27:49;;;;;;;30.47;21.37;;;6.20;99.90;;;;;;5089516;28;20290;-75
2024/03/09 08:30:17;;;;;;;29.90;22.10;;;6.30;99.90;;;;;;5089999;28;20282;-71
2024/03/09 08:32:46;;;;;;;28.73;21.33;;;6.30;99.90;;;;;;5089014;28;20561;-70
2024/03/09 08:35:14;;;;;;;30.80;21.07;;;6.40;99.90;;;;;;5089623;28;20313;-71
2024/03/09 08:37:42;;;;;;;31.07;22.07;;;6.40;99.90;;;;;;5089158;28;20306;-71
2024/03/09 08:40:10;;;;;;;30.87;22.13;;;6.50;99.90;;;;;;5089104;28;20198;-72
2024/03/09 08:42:37;;;;;;;31.57;21.70;;;6.60;99.90;;;;;;5089347;28;20199;-71
2024/03/09 08:45:09;;;;;;;29.23;21.47;;;6.70;99.90;;;;;;5089355;28;20246;-71
2024/03/09 08:47:35;;;;;;;27.97;21.10;;;6.80;99.90;;;;;;5089237;28;20195;-71
2024/03/09 08:50:04;;;;;;;33.67;20.20;;;7.00;99.90;;;;;;5089387;28;20304;-71
2024/03/09 08:52:32;;;;;;;31.00;21.40;;;7.10;99.90;;;;;;5089123;28;20524;-71
2024/03/09 08:54:59;;;;;;;29.63;20.97;;;7.30;99.90;;;;;;5088371;28;20253;-71
2024/03/09 08:57:25;;;;;;;28.03;21.13;;;7.30;99.90;;;;;;5088872;28;20302;-72
2024/03/09 08:59:59;;;;;;;28.90;20.83;;;7.40;99.90;;;;;;5088581;28;20291;-71
2024/03/09 09:02:27;;;;;;;28.23;20.87;;;7.50;99.90;;;;;;5082477;28;20198;-72
2024/03/09 09:04:54;;;;;;;34.10;26.20;;;7.60;99.90;;;;;;5085235;28;20223;-71
2024/03/09 09:07:21;;;;;;;32.47;21.67;;;7.80;99.90;;;;;;5086182;28;20563;-71
2024/03/09 09:09:48;;;;;;;28.80;21.20;;;8.00;99.90;;;;;;5086068;28;20319;-71
2024/03/09 09:12:17;;;;;;;28.47;21.17;;;8.10;99.90;;;;;;5086353;28;20693;-72
2024/03/09 09:14:44;;;;;;;30.83;21.43;;;8.20;99.90;;;;;;5084412;28;20656;-71
2024/03/09 09:17:11;;;;;;;24.67;18.67;;;8.20;99.90;;;;;;5086208;28;20234;-72
2024/03/09 09:19:39;;;;;;;28.37;21.30;;;8.30;99.90;;;;;;5086602;28;20247;-71
2024/03/09 09:22:06;;;;;;;28.30;20.73;;;8.40;99.90;;;;;;5086248;28;20622;-71
2024/03/09 09:24:34;;;;;;;27.63;21.07;;;8.50;99.90;;;;;;5085924;28;20692;-71
2024/03/09 09:27:01;;;;;;;34.67;20.83;;;8.60;99.90;;;;;;5086308;28;20249;-71
2024/03/09 09:29:28;;;;;;;25.10;20.03;;;8.70;99.90;;;;;;5085566;28;20298;-71
2024/03/09 09:31:55;;;;;;;26.33;19.70;;;8.70;99.90;;;;;;5086050;28;20685;-71
2024/03/09 09:34:23;;;;;;;26.37;19.67;;;8.90;99.90;;;;;;5085831;28;20213;-71
2024/03/09 09:36:53;;;;;;;25.27;18.80;;;9.00;99.90;;;;;;5085859;28;20256;-71
2024/03/09 09:39:25;;;;;;;25.23;18.80;;;9.10;99.90;;;;;;5085730;28;20292;-71
2024/03/09 09:41:54;;;;;;;26.93;20.60;;;9.20;99.90;;;;;;5086172;28;20207;-71
2024/03/09 09:44:26;;;;;;;24.53;19.33;;;9.40;99.90;;;;;;5086004;28;20195;-71
2024/03/09 09:46:53;;;;;;;23.83;19.43;;;9.40;99.90;;;;;;5086232;28;20275;-71
2024/03/09 09:49:22;;;;;;;26.87;20.33;;;9.50;99.90;;;;;;5086054;28;20217;-71
2024/03/09 09:51:53;;;;;;;25.57;19.67;;;9.70;99.90;;;;;;5085233;28;20286;-71
2024/03/09 09:54:23;;;;;;;25.53;20.23;;;9.80;99.90;;;;;;5086232;28;20248;-72
2024/03/09 09:56:53;;;;;;;29.80;20.83;;;10.00;99.90;;;;;;5085798;28;20211;-71
2024/03/09 09:59:20;;;;;;;25.30;19.70;;;10.00;99.90;;;;;;5069099;28;20212;-71
2024/03/09 10:01:47;;;;;;;26.90;20.03;;;10.00;99.90;;;;;;5065393;28;20211;-72
2024/03/09 10:04:16;;;;;;;30.90;19.57;;;10.10;99.90;;;;;;5067615;28;20597;-72
2024/03/09 10:06:43;;;;;;;25.93;20.27;;;10.20;99.90;;;;;;5085385;28;20234;-72
2024/03/09 10:09:11;;;;;;;27.17;20.13;;;10.10;99.90;;;;;;5085315;28;20667;-72
2024/03/09 10:11:38;;;;;;;63.87;20.43;;;10.10;99.90;;;;;;5084850;28;20676;-72
2024/03/09 10:14:07;;;;;;;24.27;18.60;;;10.30;99.90;;;;;;5085228;28;20808;-72
2024/03/09 10:16:39;;;;;;;27.13;19.13;;;10.30;99.90;;;;;;5085676;28;20297;-72
2024/03/09 10:19:08;;;;;;;24.67;18.87;;;10.50;99.90;;;;;;5085721;28;20613;-71
2024/03/09 10:21:38;;;;;;;23.37;18.87;;;10.40;99.90;;;;;;5085248;28;20560;-72
2024/03/09 10:24:07;;;;;;;24.87;18.90;;;10.50;99.90;;;;;;5084947;28;20604;-72
2024/03/09 10:26:36;;;;;;;23.57;18.50;;;10.60;99.90;;;;;;5084577;28;20728;-72
2024/03/09 10:29:04;;;;;;;24.00;18.70;;;10.70;99.90;;;;;;5085606;28;20290;-72
2024/03/09 10:31:32;;;;;;;24.37;18.63;;;10.90;99.90;;;;;;5085404;28;20700;-72
2024/03/09 10:33:59;;;;;;;23.30;18.03;;;11.00;99.90;;;;;;5085903;28;20215;-72
2024/03/09 10:36:27;;;;;;;22.80;18.43;;;11.20;99.90;;;;;;5085835;28;21097;-72
2024/03/09 10:38:55;;;;;;;22.63;18.90;;;11.30;99.90;;;;;;5085735;28;20256;-72
2024/03/09 10:41:23;;;;;;;24.53;19.47;;;11.40;99.90;;;;;;5085354;28;20213;-72
2024/03/09 10:43:53;;;;;;;24.53;18.57;;;11.50;99.90;;;;;;5083394;28;20233;-72
2024/03/09 10:46:25;;;;;;;23.83;18.67;;;11.50;99.90;;;;;;5082577;28;20238;-72
2024/03/09 10:48:54;;;;;;;26.03;19.10;;;11.60;99.90;;;;;;5082953;28;20201;-72
2024/03/09 10:51:37;;;;;;;25.00;18.60;;;11.80;99.90;;;;;;5082182;28;20214;-72
2024/03/09 10:54:18;;;;;;;28.17;19.17;;;11.80;99.90;;;;;;5082919;28;20313;-72
2024/03/09 10:56:51;;;;;;;23.03;18.70;;;11.90;99.90;;;;;;5082727;28;20199;-72
2024/03/09 10:59:21;;;;;;;30.70;18.73;;;12.00;99.90;;;;;;5087181;28;20199;-72
2024/03/09 11:01:50;;;;;;;23.57;19.00;;;12.20;99.90;;;;;;5086963;28;20211;-72
2024/03/09 11:04:20;;;;;;;22.37;16.30;;;12.20;99.90;;;;;;5086752;28;20776;-72
2024/03/09 11:06:47;;;;;;;18.27;15.00;;;12.30;99.90;;;;;;5086305;28;20222;-71
2024/03/09 11:09:16;;;;;;;19.53;15.40;;;12.40;99.90;;;;;;5087044;28;20298;-71
2024/03/09 11:11:45;;;;;;;18.60;15.43;;;12.40;99.90;;;;;;5086528;28;20245;-72
2024/03/09 11:14:15;;;;;;;18.47;14.10;;;12.40;99.90;;;;;;5086551;28;20315;-72
2024/03/09 11:16:43;;;;;;;18.67;14.50;;;12.60;99.90;;;;;;5086272;28;20736;-72
2024/03/09 11:19:14;;;;;;;16.33;13.97;;;12.70;99.90;;;;;;5086750;28;20301;-73
2024/03/09 11:21:41;;;;;;;16.07;12.97;;;12.70;99.90;;;;;;5086733;28;20194;-71
2024/03/09 11:24:11;;;;;;;18.20;14.23;;;12.80;99.90;;;;;;5086933;28;20246;-72
2024/03/09 11:26:39;;;;;;;16.73;14.07;;;12.80;99.90;;;;;;5078756;28;20239;-72
2024/03/09 11:29:10;;;;;;;16.87;14.07;;;13.00;99.90;;;;;;5069026;28;20546;-72
2024/03/09 11:31:40;;;;;;;18.53;14.30;;;13.10;99.90;;;;;;5070278;28;20192;-70
2024/03/09 11:34:17;;;;;;;16.13;13.73;;;13.10;99.90;;;;;;5070611;28;20226;-73
2024/03/09 11:36:46;;;;;;;17.47;14.20;;;13.30;99.90;;;;;;5069800;28;20203;-72
2024/03/09 11:39:14;;;;;;;17.83;14.20;;;13.30;99.90;;;;;;5069950;28;20724;-72
2024/03/09 11:41:46;;;;;;;18.87;15.80;;;13.20;99.90;;;;;;5069926;28;20290;-71
2024/03/09 11:44:16;;;;;;;18.23;15.07;;;12.80;99.90;;;;;;5070097;28;20208;-72
2024/03/09 11:46:43;;;;;;;17.60;14.17;;;12.50;99.90;;;;;;5070019;28;20223;-75
2024/03/09 11:49:10;;;;;;;18.93;13.93;;;12.40;99.90;;;;;;5069971;28;20290;-71
2024/03/09 11:51:40;;;;;;;15.90;13.83;;;12.20;99.90;;;;;;5069720;28;20214;-72
2024/03/09 11:54:10;;;;;;;15.83;13.53;;;12.00;99.90;;;;;;5069604;28;20211;-73
2024/03/09 11:56:40;;;;;;;15.93;12.60;;;11.90;99.90;;;;;;5077283;28;20234;-73
2024/03/09 11:59:07;;;;;;;22.50;17.53;;;11.60;99.90;;;;;;5089756;28;20256;-73
2024/03/09 12:01:35;;;;;;;14.57;12.37;;;11.50;99.90;;;;;;5089378;28;20618;-73
2024/03/09 12:04:04;;;;;;;16.33;12.73;;;11.30;99.90;;;;;;5087729;28;20702;-73
2024/03/09 12:06:31;;;;;;;23.07;19.07;;;11.10;99.90;;;;;;5090191;28;20544;-72
2024/03/09 12:09:00;;;;;;;15.73;13.50;;;11.10;99.90;;;;;;5089805;28;20210;-72
2024/03/09 12:11:30;;;;;;;16.87;14.00;;;11.00;99.90;;;;;;5089172;28;20554;-72
2024/03/09 12:13:57;;;;;;;17.50;14.00;;;11.00;99.90;;;;;;5069180;28;20232;-72
2024/03/09 12:16:26;;;;;;;16.67;13.30;;;10.90;99.90;;;;;;5068834;28;20204;-72
2024/03/09 12:18:56;;;;;;;17.67;14.53;;;10.90;99.90;;;;;;5067908;28;20237;-72
2024/03/09 12:21:26;;;;;;;16.13;13.97;;;10.80;99.90;;;;;;5086044;28;20241;-72
2024/03/09 12:23:54;;;;;;;15.67;12.37;;;10.80;99.90;;;;;;5087775;28;20195;-72
2024/03/09 12:26:25;;;;;;;15.07;13.03;;;10.70;99.90;;;;;;5087834;28;20227;-72
2024/03/09 12:28:53;;;;;;;15.13;13.07;;;10.70;99.90;;;;;;5088479;28;20248;-72
2024/03/09 12:31:21;;;;;;;12.93;11.40;;;10.70;99.90;;;;;;5088403;28;20688;-72
2024/03/09 12:33:48;;;;;;;13.27;10.87;;;10.60;99.90;;;;;;5089210;28;20227;-72
2024/03/09 12:36:17;;;;;;;13.97;11.00;;;10.60;99.90;;;;;;5089304;28;20210;-72
2024/03/09 12:38:44;;;;;;;13.57;10.90;;;10.60;99.90;;;;;;5088945;28;20207;-72
2024/03/09 12:41:26;;;;;;;13.40;10.87;;;10.40;99.90;;;;;;5087436;28;20298;-72